sensor_id;sensor_type;location;lat;lon;timestamp;P1;durP1;ratioP1;P2;durP2;ratioP2
22068;SDS011;13887;57.196;-2.100;2022-12-24T00:00:08;12.60;;;12.20;;
22068;SDS011;13887;57.196;-2.100;2022-12-24T00:02:36;12.30;;;11.90;;
22068;SDS011;13887;57.196;-2.100;2022-12-24T00:05:03;11.90;;;11.50;;
22068;SDS011;13887;57.196;-2.100;2022-12-24T00:07:31;12.20;;;11.80;;
22068;SDS011;13887;57.196;-2.100;2022-12-24T00:09:57;12.20;;;11.80;;
22068;SDS011;13887;57.196;-2.100;2022-12-24T00:12:24;12.40;;;12.00;;
22068;SDS011;13887;57.196;-2.100;2022-12-24T00:14:51;12.67;;;12.27;;
22068;SDS011;13887;57.196;-2.100;2022-12-24T00:17:18;12.43;;;12.03;;
22068;SDS011;13887;57.196;-2.100;2022-12-24T00:19:45;12.37;;;11.97;;
22068;SDS011;13887;57.196;-2.100;2022-12-24T00:22:12;12.30;;;11.90;;
22068;SDS011;13887;57.196;-2.100;2022-12-24T00:24:39;12.10;;;11.70;;
22068;SDS011;13887;57.196;-2.100;2022-12-24T00:27:06;11.83;;;11.43;;
22068;SDS011;13887;57.196;-2.100;2022-12-24T00:29:33;12.87;;;12.47;;
22068;SDS011;13887;57.196;-2.100;2022-12-24T00:32:00;12.17;;;11.77;;
22068;SDS011;13887;57.196;-2.100;2022-12-24T00:34:26;12.33;;;11.93;;
22068;SDS011;13887;57.196;-2.100;2022-12-24T00:36:53;11.93;;;11.53;;
22068;SDS011;13887;57.196;-2.100;2022-12-24T00:39:20;12.53;;;12.13;;
22068;SDS011;13887;57.196;-2.100;2022-12-24T00:41:47;12.80;;;12.40;;
22068;SDS011;13887;57.196;-2.100;2022-12-24T00:44:14;12.53;;;12.13;;
22068;SDS011;13887;57.196;-2.100;2022-12-24T00:46:41;12.40;;;12.00;;
22068;SDS011;13887;57.196;-2.100;2022-12-24T00:49:08;12.87;;;12.47;;
22068;SDS011;13887;57.196;-2.100;2022-12-24T00:51:37;12.63;;;12.23;;
22068;SDS011;13887;57.196;-2.100;2022-12-24T00:54:04;12.63;;;12.23;;
22068;SDS011;13887;57.196;-2.100;2022-12-24T00:56:32;12.87;;;12.47;;
22068;SDS011;13887;57.196;-2.100;2022-12-24T00:59:00;13.13;;;12.73;;
22068;SDS011;13887;57.196;-2.100;2022-12-24T01:01:27;13.23;;;12.83;;
22068;SDS011;13887;57.196;-2.100;2022-12-24T01:03:54;13.03;;;12.63;;
22068;SDS011;13887;57.196;-2.100;2022-12-24T01:06:42;12.87;;;12.47;;
22068;SDS011;13887;57.196;-2.100;2022-12-24T01:09:09;13.00;;;12.60;;
22068;SDS011;13887;57.196;-2.100;2022-12-24T01:11:36;13.07;;;12.67;;
22068;SDS011;13887;57.196;-2.100;2022-12-24T01:14:03;12.87;;;12.47;;
22068;SDS011;13887;57.196;-2.100;2022-12-24T01:16:30;13.80;;;13.30;;
22068;SDS011;13887;57.196;-2.100;2022-12-24T01:18:57;13.60;;;13.10;;
22068;SDS011;13887;57.196;-2.100;2022-12-24T01:21:24;13.20;;;12.80;;
22068;SDS011;13887;57.196;-2.100;2022-12-24T01:23:51;12.83;;;12.43;;
22068;SDS011;13887;57.196;-2.100;2022-12-24T01:26:18;13.20;;;12.80;;
22068;SDS011;13887;57.196;-2.100;2022-12-24T01:28:45;13.80;;;13.30;;
22068;SDS011;13887;57.196;-2.100;2022-12-24T01:31:15;13.17;;;12.77;;
22068;SDS011;13887;57.196;-2.100;2022-12-24T01:33:44;13.00;;;12.60;;
22068;SDS011;13887;57.196;-2.100;2022-12-24T01:36:12;13.60;;;13.10;;
22068;SDS011;13887;57.196;-2.100;2022-12-24T01:38:39;13.60;;;13.10;;
22068;SDS011;13887;57.196;-2.100;2022-12-24T01:41:10;13.30;;;12.90;;
22068;SDS011;13887;57.196;-2.100;2022-12-24T01:44:14;13.47;;;13.00;;
22068;SDS011;13887;57.196;-2.100;2022-12-24T01:49:42;12.83;;;12.43;;
22068;SDS011;13887;57.196;-2.100;2022-12-24T01:52:17;13.03;;;12.63;;
22068;SDS011;13887;57.196;-2.100;2022-12-24T01:54:49;12.67;;;12.27;;
22068;SDS011;13887;57.196;-2.100;2022-12-24T01:57:21;12.43;;;12.03;;
22068;SDS011;13887;57.196;-2.100;2022-12-24T01:59:56;12.90;;;12.50;;
22068;SDS011;13887;57.196;-2.100;2022-12-24T02:02:30;12.60;;;12.20;;
22068;SDS011;13887;57.196;-2.100;2022-12-24T02:05:21;12.47;;;12.07;;
22068;SDS011;13887;57.196;-2.100;2022-12-24T02:08:04;12.53;;;12.13;;
22068;SDS011;13887;57.196;-2.100;2022-12-24T02:10:33;12.57;;;12.17;;
22068;SDS011;13887;57.196;-2.100;2022-12-24T02:13:00;12.90;;;12.50;;
22068;SDS011;13887;57.196;-2.100;2022-12-24T02:15:29;12.87;;;12.47;;
22068;SDS011;13887;57.196;-2.100;2022-12-24T02:18:21;12.50;;;12.10;;
22068;SDS011;13887;57.196;-2.100;2022-12-24T02:21:42;11.93;;;11.53;;
22068;SDS011;13887;57.196;-2.100;2022-12-24T02:26:59;12.30;;;11.90;;
22068;SDS011;13887;57.196;-2.100;2022-12-24T02:32:20;12.33;;;11.93;;
22068;SDS011;13887;57.196;-2.100;2022-12-24T02:37:39;12.10;;;11.70;;
22068;SDS011;13887;57.196;-2.100;2022-12-24T02:43:17;12.13;;;11.73;;
22068;SDS011;13887;57.196;-2.100;2022-12-24T02:45:51;11.97;;;11.57;;
22068;SDS011;13887;57.196;-2.100;2022-12-24T02:48:25;12.23;;;11.83;;
22068;SDS011;13887;57.196;-2.100;2022-12-24T02:50:57;12.23;;;11.83;;
22068;SDS011;13887;57.196;-2.100;2022-12-24T02:53:32;12.17;;;11.77;;
22068;SDS011;13887;57.196;-2.100;2022-12-24T02:58:45;12.10;;;11.70;;
22068;SDS011;13887;57.196;-2.100;2022-12-24T03:09:42;12.60;;;12.20;;
22068;SDS011;13887;57.196;-2.100;2022-12-24T03:12:43;12.43;;;12.03;;
22068;SDS011;13887;57.196;-2.100;2022-12-24T03:15:15;12.53;;;12.13;;
22068;SDS011;13887;57.196;-2.100;2022-12-24T03:17:45;12.10;;;11.70;;
22068;SDS011;13887;57.196;-2.100;2022-12-24T03:20:16;12.07;;;11.67;;
22068;SDS011;13887;57.196;-2.100;2022-12-24T03:22:47;12.30;;;11.90;;
22068;SDS011;13887;57.196;-2.100;2022-12-24T03:25:14;12.60;;;12.20;;
22068;SDS011;13887;57.196;-2.100;2022-12-24T03:27:42;12.17;;;11.77;;
22068;SDS011;13887;57.196;-2.100;2022-12-24T03:30:10;12.20;;;11.80;;
22068;SDS011;13887;57.196;-2.100;2022-12-24T03:32:39;12.30;;;11.90;;
22068;SDS011;13887;57.196;-2.100;2022-12-24T03:35:06;12.30;;;11.90;;
22068;SDS011;13887;57.196;-2.100;2022-12-24T03:37:33;12.40;;;12.00;;
22068;SDS011;13887;57.196;-2.100;2022-12-24T03:40:00;12.40;;;12.00;;
22068;SDS011;13887;57.196;-2.100;2022-12-24T03:42:27;12.40;;;12.00;;
22068;SDS011;13887;57.196;-2.100;2022-12-24T03:44:54;12.60;;;12.20;;
22068;SDS011;13887;57.196;-2.100;2022-12-24T03:47:21;11.90;;;11.50;;
22068;SDS011;13887;57.196;-2.100;2022-12-24T03:49:47;12.10;;;11.70;;
22068;SDS011;13887;57.196;-2.100;2022-12-24T03:52:14;12.00;;;11.60;;
22068;SDS011;13887;57.196;-2.100;2022-12-24T03:54:41;11.93;;;11.53;;
22068;SDS011;13887;57.196;-2.100;2022-12-24T03:57:08;12.03;;;11.63;;
22068;SDS011;13887;57.196;-2.100;2022-12-24T03:59:35;12.23;;;11.83;;
22068;SDS011;13887;57.196;-2.100;2022-12-24T04:02:02;11.73;;;11.33;;
22068;SDS011;13887;57.196;-2.100;2022-12-24T04:04:29;11.83;;;11.43;;
22068;SDS011;13887;57.196;-2.100;2022-12-24T04:06:58;12.00;;;11.60;;
22068;SDS011;13887;57.196;-2.100;2022-12-24T04:09:25;11.90;;;11.50;;
22068;SDS011;13887;57.196;-2.100;2022-12-24T04:11:51;11.67;;;11.27;;
22068;SDS011;13887;57.196;-2.100;2022-12-24T04:14:18;12.10;;;11.70;;
22068;SDS011;13887;57.196;-2.100;2022-12-24T04:16:45;12.20;;;11.80;;
22068;SDS011;13887;57.196;-2.100;2022-12-24T04:19:12;11.87;;;11.47;;
22068;SDS011;13887;57.196;-2.100;2022-12-24T04:21:39;12.23;;;11.83;;
22068;SDS011;13887;57.196;-2.100;2022-12-24T04:24:06;12.03;;;11.63;;
22068;SDS011;13887;57.196;-2.100;2022-12-24T04:26:33;12.20;;;11.80;;
22068;SDS011;13887;57.196;-2.100;2022-12-24T04:29:00;12.40;;;12.00;;
22068;SDS011;13887;57.196;-2.100;2022-12-24T04:31:26;12.07;;;11.67;;
22068;SDS011;13887;57.196;-2.100;2022-12-24T04:33:53;11.70;;;11.30;;
22068;SDS011;13887;57.196;-2.100;2022-12-24T04:36:20;11.80;;;11.40;;
22068;SDS011;13887;57.196;-2.100;2022-12-24T04:38:48;11.73;;;11.33;;
22068;SDS011;13887;57.196;-2.100;2022-12-24T04:41:16;11.77;;;11.37;;
22068;SDS011;13887;57.196;-2.100;2022-12-24T04:43:50;11.80;;;11.40;;
22068;SDS011;13887;57.196;-2.100;2022-12-24T04:46:19;12.20;;;11.80;;
22068;SDS011;13887;57.196;-2.100;2022-12-24T04:48:48;12.30;;;11.90;;
22068;SDS011;13887;57.196;-2.100;2022-12-24T04:51:17;12.30;;;11.90;;
22068;SDS011;13887;57.196;-2.100;2022-12-24T04:53:45;12.30;;;11.90;;
22068;SDS011;13887;57.196;-2.100;2022-12-24T04:56:13;12.50;;;12.10;;
22068;SDS011;13887;57.196;-2.100;2022-12-24T04:58:43;12.33;;;11.93;;
22068;SDS011;13887;57.196;-2.100;2022-12-24T05:01:14;12.10;;;11.70;;
22068;SDS011;13887;57.196;-2.100;2022-12-24T05:03:43;12.17;;;11.77;;
22068;SDS011;13887;57.196;-2.100;2022-12-24T05:06:11;12.80;;;12.40;;
22068;SDS011;13887;57.196;-2.100;2022-12-24T05:08:41;12.50;;;12.10;;
22068;SDS011;13887;57.196;-2.100;2022-12-24T05:11:11;12.30;;;11.90;;
22068;SDS011;13887;57.196;-2.100;2022-12-24T05:13:41;12.37;;;11.97;;
22068;SDS011;13887;57.196;-2.100;2022-12-24T05:16:13;12.27;;;11.87;;
22068;SDS011;13887;57.196;-2.100;2022-12-24T05:18:42;11.60;;;11.20;;
22068;SDS011;13887;57.196;-2.100;2022-12-24T05:21:10;12.20;;;11.80;;
22068;SDS011;13887;57.196;-2.100;2022-12-24T05:23:40;12.33;;;11.93;;
22068;SDS011;13887;57.196;-2.100;2022-12-24T05:28:58;12.57;;;12.17;;
22068;SDS011;13887;57.196;-2.100;2022-12-24T05:31:27;12.40;;;12.00;;
22068;SDS011;13887;57.196;-2.100;2022-12-24T05:33:55;12.23;;;11.83;;
22068;SDS011;13887;57.196;-2.100;2022-12-24T05:36:22;12.40;;;12.00;;
22068;SDS011;13887;57.196;-2.100;2022-12-24T05:38:50;12.40;;;12.00;;
22068;SDS011;13887;57.196;-2.100;2022-12-24T05:41:17;12.20;;;11.80;;
22068;SDS011;13887;57.196;-2.100;2022-12-24T05:43:44;12.00;;;11.60;;
22068;SDS011;13887;57.196;-2.100;2022-12-24T05:46:12;12.53;;;12.13;;
22068;SDS011;13887;57.196;-2.100;2022-12-24T05:48:41;12.60;;;12.20;;
22068;SDS011;13887;57.196;-2.100;2022-12-24T05:51:09;12.60;;;12.20;;
22068;SDS011;13887;57.196;-2.100;2022-12-24T05:53:37;12.33;;;11.93;;
22068;SDS011;13887;57.196;-2.100;2022-12-24T05:56:09;11.97;;;11.57;;
22068;SDS011;13887;57.196;-2.100;2022-12-24T05:58:38;12.63;;;12.23;;
22068;SDS011;13887;57.196;-2.100;2022-12-24T06:01:06;12.67;;;12.27;;
22068;SDS011;13887;57.196;-2.100;2022-12-24T06:03:33;12.10;;;11.70;;
22068;SDS011;13887;57.196;-2.100;2022-12-24T06:06:01;12.50;;;12.10;;
22068;SDS011;13887;57.196;-2.100;2022-12-24T06:08:30;12.53;;;12.13;;
22068;SDS011;13887;57.196;-2.100;2022-12-24T06:10:59;12.57;;;12.17;;
22068;SDS011;13887;57.196;-2.100;2022-12-24T06:13:27;12.33;;;11.93;;
22068;SDS011;13887;57.196;-2.100;2022-12-24T06:15:55;12.43;;;12.03;;
22068;SDS011;13887;57.196;-2.100;2022-12-24T06:18:23;12.13;;;11.73;;
22068;SDS011;13887;57.196;-2.100;2022-12-24T06:20:54;12.30;;;11.90;;
22068;SDS011;13887;57.196;-2.100;2022-12-24T06:23:23;12.50;;;12.10;;
22068;SDS011;13887;57.196;-2.100;2022-12-24T06:25:50;12.50;;;12.10;;
22068;SDS011;13887;57.196;-2.100;2022-12-24T06:28:17;12.53;;;12.13;;
22068;SDS011;13887;57.196;-2.100;2022-12-24T06:30:48;12.17;;;11.77;;
22068;SDS011;13887;57.196;-2.100;2022-12-24T06:33:16;12.20;;;11.80;;
22068;SDS011;13887;57.196;-2.100;2022-12-24T06:35:43;12.27;;;11.87;;
22068;SDS011;13887;57.196;-2.100;2022-12-24T06:38:11;12.50;;;12.10;;
22068;SDS011;13887;57.196;-2.100;2022-12-24T06:40:39;12.30;;;11.90;;
22068;SDS011;13887;57.196;-2.100;2022-12-24T06:43:08;12.23;;;11.83;;
22068;SDS011;13887;57.196;-2.100;2022-12-24T06:45:35;12.07;;;11.67;;
22068;SDS011;13887;57.196;-2.100;2022-12-24T06:48:02;12.20;;;11.80;;
22068;SDS011;13887;57.196;-2.100;2022-12-24T06:50:29;11.47;;;11.07;;
22068;SDS011;13887;57.196;-2.100;2022-12-24T06:52:56;11.70;;;11.30;;
22068;SDS011;13887;57.196;-2.100;2022-12-24T06:55:23;11.63;;;11.23;;
22068;SDS011;13887;57.196;-2.100;2022-12-24T06:57:50;11.70;;;11.30;;
22068;SDS011;13887;57.196;-2.100;2022-12-24T07:00:16;12.00;;;11.60;;
22068;SDS011;13887;57.196;-2.100;2022-12-24T07:02:43;12.50;;;12.10;;
22068;SDS011;13887;57.196;-2.100;2022-12-24T07:05:11;13.00;;;12.60;;
22068;SDS011;13887;57.196;-2.100;2022-12-24T07:07:40;12.87;;;12.47;;
22068;SDS011;13887;57.196;-2.100;2022-12-24T07:10:15;12.83;;;12.43;;
22068;SDS011;13887;57.196;-2.100;2022-12-24T07:12:44;12.50;;;12.10;;
22068;SDS011;13887;57.196;-2.100;2022-12-24T07:15:11;12.47;;;12.07;;
22068;SDS011;13887;57.196;-2.100;2022-12-24T07:17:38;12.63;;;12.23;;
22068;SDS011;13887;57.196;-2.100;2022-12-24T07:20:06;12.57;;;12.17;;
22068;SDS011;13887;57.196;-2.100;2022-12-24T07:22:34;12.50;;;12.10;;
22068;SDS011;13887;57.196;-2.100;2022-12-24T07:25:00;12.63;;;12.23;;
22068;SDS011;13887;57.196;-2.100;2022-12-24T07:27:27;12.70;;;12.30;;
22068;SDS011;13887;57.196;-2.100;2022-12-24T07:29:55;12.27;;;11.87;;
22068;SDS011;13887;57.196;-2.100;2022-12-24T07:32:22;12.40;;;12.00;;
22068;SDS011;13887;57.196;-2.100;2022-12-24T07:34:49;12.17;;;11.77;;
22068;SDS011;13887;57.196;-2.100;2022-12-24T07:37:15;11.87;;;11.47;;
22068;SDS011;13887;57.196;-2.100;2022-12-24T07:39:42;12.13;;;11.73;;
22068;SDS011;13887;57.196;-2.100;2022-12-24T07:42:10;12.27;;;11.87;;
22068;SDS011;13887;57.196;-2.100;2022-12-24T07:44:38;12.20;;;11.80;;
22068;SDS011;13887;57.196;-2.100;2022-12-24T07:47:05;12.10;;;11.70;;
22068;SDS011;13887;57.196;-2.100;2022-12-24T07:49:32;12.27;;;11.87;;
22068;SDS011;13887;57.196;-2.100;2022-12-24T07:52:00;12.30;;;11.90;;
22068;SDS011;13887;57.196;-2.100;2022-12-24T07:54:27;12.30;;;11.90;;
22068;SDS011;13887;57.196;-2.100;2022-12-24T07:56:54;12.37;;;11.97;;
22068;SDS011;13887;57.196;-2.100;2022-12-24T07:59:21;12.17;;;11.77;;
22068;SDS011;13887;57.196;-2.100;2022-12-24T08:01:48;12.87;;;12.47;;
22068;SDS011;13887;57.196;-2.100;2022-12-24T08:04:15;12.30;;;11.90;;
22068;SDS011;13887;57.196;-2.100;2022-12-24T08:06:42;12.70;;;12.30;;
22068;SDS011;13887;57.196;-2.100;2022-12-24T08:09:09;13.10;;;12.70;;
22068;SDS011;13887;57.196;-2.100;2022-12-24T08:11:36;12.73;;;12.33;;
22068;SDS011;13887;57.196;-2.100;2022-12-24T08:14:03;12.63;;;12.23;;
22068;SDS011;13887;57.196;-2.100;2022-12-24T08:16:30;13.13;;;12.73;;
22068;SDS011;13887;57.196;-2.100;2022-12-24T08:18:57;12.80;;;12.40;;
22068;SDS011;13887;57.196;-2.100;2022-12-24T08:21:24;12.53;;;12.13;;
22068;SDS011;13887;57.196;-2.100;2022-12-24T08:23:51;12.20;;;11.80;;
22068;SDS011;13887;57.196;-2.100;2022-12-24T08:26:17;12.27;;;11.87;;
22068;SDS011;13887;57.196;-2.100;2022-12-24T08:28:44;12.43;;;12.03;;
22068;SDS011;13887;57.196;-2.100;2022-12-24T08:31:11;12.47;;;12.07;;
22068;SDS011;13887;57.196;-2.100;2022-12-24T08:33:41;12.33;;;11.93;;
22068;SDS011;13887;57.196;-2.100;2022-12-24T08:36:08;12.50;;;12.10;;
22068;SDS011;13887;57.196;-2.100;2022-12-24T08:38:35;12.60;;;12.20;;
22068;SDS011;13887;57.196;-2.100;2022-12-24T08:41:02;12.27;;;11.87;;
22068;SDS011;13887;57.196;-2.100;2022-12-24T08:43:30;11.70;;;11.30;;
22068;SDS011;13887;57.196;-2.100;2022-12-24T08:46:00;12.40;;;12.00;;
22068;SDS011;13887;57.196;-2.100;2022-12-24T08:48:28;11.83;;;11.43;;
22068;SDS011;13887;57.196;-2.100;2022-12-24T08:50:56;11.53;;;11.13;;
22068;SDS011;13887;57.196;-2.100;2022-12-24T08:53:23;11.60;;;11.20;;
22068;SDS011;13887;57.196;-2.100;2022-12-24T08:55:50;11.87;;;11.47;;
22068;SDS011;13887;57.196;-2.100;2022-12-24T08:58:21;11.83;;;11.43;;
22068;SDS011;13887;57.196;-2.100;2022-12-24T09:00:48;11.57;;;11.17;;
22068;SDS011;13887;57.196;-2.100;2022-12-24T09:03:15;11.87;;;11.47;;
22068;SDS011;13887;57.196;-2.100;2022-12-24T09:05:50;11.67;;;11.27;;
22068;SDS011;13887;57.196;-2.100;2022-12-24T09:08:19;11.83;;;11.43;;
22068;SDS011;13887;57.196;-2.100;2022-12-24T09:10:46;11.60;;;11.20;;
22068;SDS011;13887;57.196;-2.100;2022-12-24T09:13:13;12.23;;;11.83;;
22068;SDS011;13887;57.196;-2.100;2022-12-24T09:15:40;12.47;;;12.07;;
22068;SDS011;13887;57.196;-2.100;2022-12-24T09:18:07;12.10;;;11.70;;
22068;SDS011;13887;57.196;-2.100;2022-12-24T09:20:34;12.20;;;11.80;;
22068;SDS011;13887;57.196;-2.100;2022-12-24T09:23:01;12.00;;;11.60;;
22068;SDS011;13887;57.196;-2.100;2022-12-24T09:25:28;12.13;;;11.73;;
22068;SDS011;13887;57.196;-2.100;2022-12-24T09:27:55;12.00;;;11.60;;
22068;SDS011;13887;57.196;-2.100;2022-12-24T09:30:22;11.80;;;11.40;;
22068;SDS011;13887;57.196;-2.100;2022-12-24T09:32:50;11.57;;;11.17;;
22068;SDS011;13887;57.196;-2.100;2022-12-24T09:35:17;11.60;;;11.20;;
22068;SDS011;13887;57.196;-2.100;2022-12-24T09:37:44;11.50;;;11.10;;
22068;SDS011;13887;57.196;-2.100;2022-12-24T09:40:57;11.47;;;11.07;;
22068;SDS011;13887;57.196;-2.100;2022-12-24T09:43:07;11.80;;;11.40;;
22068;SDS011;13887;57.196;-2.100;2022-12-24T09:48:26;11.47;;;11.07;;
22068;SDS011;13887;57.196;-2.100;2022-12-24T09:59:08;10.87;;;10.57;;
22068;SDS011;13887;57.196;-2.100;2022-12-24T10:01:40;10.90;;;10.60;;
22068;SDS011;13887;57.196;-2.100;2022-12-24T10:04:11;11.80;;;11.40;;
22068;SDS011;13887;57.196;-2.100;2022-12-24T10:07:00;11.13;;;10.83;;
22068;SDS011;13887;57.196;-2.100;2022-12-24T10:18:13;11.33;;;11.03;;
22068;SDS011;13887;57.196;-2.100;2022-12-24T10:23:53;11.63;;;11.23;;
22068;SDS011;13887;57.196;-2.100;2022-12-24T10:29:26;11.80;;;11.40;;
22068;SDS011;13887;57.196;-2.100;2022-12-24T10:34:37;11.97;;;11.57;;
22068;SDS011;13887;57.196;-2.100;2022-12-24T10:37:14;11.90;;;11.50;;
22068;SDS011;13887;57.196;-2.100;2022-12-24T10:39:42;12.53;;;12.13;;
22068;SDS011;13887;57.196;-2.100;2022-12-24T10:42:09;12.03;;;11.63;;
22068;SDS011;13887;57.196;-2.100;2022-12-24T10:44:38;12.17;;;11.77;;
22068;SDS011;13887;57.196;-2.100;2022-12-24T10:47:06;12.47;;;12.07;;
22068;SDS011;13887;57.196;-2.100;2022-12-24T10:52:44;11.67;;;11.27;;
22068;SDS011;13887;57.196;-2.100;2022-12-24T10:57:44;12.30;;;11.90;;
22068;SDS011;13887;57.196;-2.100;2022-12-24T11:00:19;11.50;;;11.10;;
22068;SDS011;13887;57.196;-2.100;2022-12-24T11:02:47;11.63;;;11.23;;
22068;SDS011;13887;57.196;-2.100;2022-12-24T11:05:28;11.17;;;10.87;;
22068;SDS011;13887;57.196;-2.100;2022-12-24T11:10:41;11.60;;;11.20;;
22068;SDS011;13887;57.196;-2.100;2022-12-24T11:13:39;11.70;;;11.30;;
22068;SDS011;13887;57.196;-2.100;2022-12-24T11:16:13;11.17;;;10.87;;
22068;SDS011;13887;57.196;-2.100;2022-12-24T11:18:49;11.10;;;10.80;;
22068;SDS011;13887;57.196;-2.100;2022-12-24T11:24:02;11.30;;;10.97;;
22068;SDS011;13887;57.196;-2.100;2022-12-24T11:26:39;10.83;;;10.53;;
22068;SDS011;13887;57.196;-2.100;2022-12-24T11:31:48;11.40;;;11.00;;
22068;SDS011;13887;57.196;-2.100;2022-12-24T11:36:51;11.50;;;11.10;;
22068;SDS011;13887;57.196;-2.100;2022-12-24T11:39:20;10.93;;;10.63;;
22068;SDS011;13887;57.196;-2.100;2022-12-24T11:41:49;10.70;;;10.40;;
22068;SDS011;13887;57.196;-2.100;2022-12-24T11:44:22;10.60;;;10.30;;
22068;SDS011;13887;57.196;-2.100;2022-12-24T11:46:51;10.80;;;10.50;;
22068;SDS011;13887;57.196;-2.100;2022-12-24T11:49:29;10.67;;;10.37;;
22068;SDS011;13887;57.196;-2.100;2022-12-24T11:54:30;11.00;;;10.70;;
22068;SDS011;13887;57.196;-2.100;2022-12-24T11:57:02;10.90;;;10.60;;
22068;SDS011;13887;57.196;-2.100;2022-12-24T11:59:35;10.70;;;10.40;;
22068;SDS011;13887;57.196;-2.100;2022-12-24T12:04:41;10.90;;;10.60;;
22068;SDS011;13887;57.196;-2.100;2022-12-24T12:07:33;10.27;;;9.97;;
22068;SDS011;13887;57.196;-2.100;2022-12-24T12:12:59;10.83;;;10.53;;
22068;SDS011;13887;57.196;-2.100;2022-12-24T12:18:14;11.03;;;10.73;;
22068;SDS011;13887;57.196;-2.100;2022-12-24T12:20:49;11.10;;;10.80;;
22068;SDS011;13887;57.196;-2.100;2022-12-24T12:23:22;10.90;;;10.60;;
22068;SDS011;13887;57.196;-2.100;2022-12-24T12:25:58;11.00;;;10.70;;
22068;SDS011;13887;57.196;-2.100;2022-12-24T12:31:30;11.10;;;10.80;;
22068;SDS011;13887;57.196;-2.100;2022-12-24T12:33:59;11.50;;;11.10;;
22068;SDS011;13887;57.196;-2.100;2022-12-24T12:39:39;11.30;;;10.93;;
22068;SDS011;13887;57.196;-2.100;2022-12-24T12:52:58;11.70;;;11.30;;
22068;SDS011;13887;57.196;-2.100;2022-12-24T13:09:50;11.00;;;10.70;;
22068;SDS011;13887;57.196;-2.100;2022-12-24T13:20:47;11.07;;;10.77;;
22068;SDS011;13887;57.196;-2.100;2022-12-24T13:23:19;11.40;;;11.00;;
22068;SDS011;13887;57.196;-2.100;2022-12-24T13:25:52;11.50;;;11.10;;
22068;SDS011;13887;57.196;-2.100;2022-12-24T13:30:51;11.00;;;10.70;;
22068;SDS011;13887;57.196;-2.100;2022-12-24T13:36:19;10.97;;;10.67;;
22068;SDS011;13887;57.196;-2.100;2022-12-24T13:38:51;10.90;;;10.60;;
22068;SDS011;13887;57.196;-2.100;2022-12-24T13:49:41;10.97;;;10.67;;
22068;SDS011;13887;57.196;-2.100;2022-12-24T13:54:39;11.17;;;10.87;;
22068;SDS011;13887;57.196;-2.100;2022-12-24T14:00:21;11.33;;;10.97;;
22068;SDS011;13887;57.196;-2.100;2022-12-24T14:08:13;11.20;;;10.90;;
22068;SDS011;13887;57.196;-2.100;2022-12-24T14:10:44;11.77;;;11.37;;
22068;SDS011;13887;57.196;-2.100;2022-12-24T14:16:09;11.07;;;10.77;;
22068;SDS011;13887;57.196;-2.100;2022-12-24T14:21:36;11.50;;;11.10;;
22068;SDS011;13887;57.196;-2.100;2022-12-24T14:24:16;11.07;;;10.77;;
22068;SDS011;13887;57.196;-2.100;2022-12-24T14:26:51;11.37;;;11.03;;
22068;SDS011;13887;57.196;-2.100;2022-12-24T14:29:28;11.87;;;11.47;;
22068;SDS011;13887;57.196;-2.100;2022-12-24T14:31:59;11.70;;;11.30;;
22068;SDS011;13887;57.196;-2.100;2022-12-24T14:34:30;11.60;;;11.20;;
22068;SDS011;13887;57.196;-2.100;2022-12-24T14:36:57;11.33;;;11.00;;
22068;SDS011;13887;57.196;-2.100;2022-12-24T14:39:32;11.10;;;10.80;;
22068;SDS011;13887;57.196;-2.100;2022-12-24T14:42:03;11.13;;;10.83;;
22068;SDS011;13887;57.196;-2.100;2022-12-24T14:44:41;10.73;;;10.43;;
22068;SDS011;13887;57.196;-2.100;2022-12-24T14:53:01;11.97;;;11.57;;
22068;SDS011;13887;57.196;-2.100;2022-12-24T14:55:40;11.60;;;11.20;;
22068;SDS011;13887;57.196;-2.100;2022-12-24T15:01:21;11.13;;;10.83;;
22068;SDS011;13887;57.196;-2.100;2022-12-24T15:09:19;11.70;;;11.30;;
22068;SDS011;13887;57.196;-2.100;2022-12-24T15:11:49;12.03;;;11.63;;
22068;SDS011;13887;57.196;-2.100;2022-12-24T15:14:19;11.67;;;11.27;;
22068;SDS011;13887;57.196;-2.100;2022-12-24T15:16:54;11.50;;;11.10;;
22068;SDS011;13887;57.196;-2.100;2022-12-24T15:19:46;11.03;;;10.73;;
22068;SDS011;13887;57.196;-2.100;2022-12-24T15:22:20;11.17;;;10.87;;
22068;SDS011;13887;57.196;-2.100;2022-12-24T15:24:50;10.73;;;10.43;;
22068;SDS011;13887;57.196;-2.100;2022-12-24T15:27:24;10.93;;;10.63;;
22068;SDS011;13887;57.196;-2.100;2022-12-24T15:29:54;11.13;;;10.83;;
22068;SDS011;13887;57.196;-2.100;2022-12-24T15:32:22;10.80;;;10.50;;
22068;SDS011;13887;57.196;-2.100;2022-12-24T15:34:53;11.50;;;11.10;;
22068;SDS011;13887;57.196;-2.100;2022-12-24T15:37:27;11.73;;;11.33;;
22068;SDS011;13887;57.196;-2.100;2022-12-24T15:39:59;11.50;;;11.10;;
22068;SDS011;13887;57.196;-2.100;2022-12-24T15:42:28;12.10;;;11.70;;
22068;SDS011;13887;57.196;-2.100;2022-12-24T15:45:03;11.47;;;11.07;;
22068;SDS011;13887;57.196;-2.100;2022-12-24T15:47:41;11.50;;;11.10;;
22068;SDS011;13887;57.196;-2.100;2022-12-24T15:52:59;11.37;;;10.97;;
22068;SDS011;13887;57.196;-2.100;2022-12-24T15:56:03;11.80;;;11.40;;
22068;SDS011;13887;57.196;-2.100;2022-12-24T15:58:33;11.77;;;11.37;;
22068;SDS011;13887;57.196;-2.100;2022-12-24T16:03:53;11.67;;;11.27;;
22068;SDS011;13887;57.196;-2.100;2022-12-24T16:06:22;12.10;;;11.70;;
22068;SDS011;13887;57.196;-2.100;2022-12-24T16:08:49;11.63;;;11.23;;
22068;SDS011;13887;57.196;-2.100;2022-12-24T16:16:17;12.37;;;11.97;;
22068;SDS011;13887;57.196;-2.100;2022-12-24T16:18:53;11.80;;;11.40;;
22068;SDS011;13887;57.196;-2.100;2022-12-24T16:21:23;11.40;;;11.00;;
22068;SDS011;13887;57.196;-2.100;2022-12-24T16:23:57;12.30;;;11.90;;
22068;SDS011;13887;57.196;-2.100;2022-12-24T16:26:33;12.37;;;11.97;;
22068;SDS011;13887;57.196;-2.100;2022-12-24T16:29:00;11.63;;;11.23;;
22068;SDS011;13887;57.196;-2.100;2022-12-24T16:31:31;12.37;;;11.97;;
22068;SDS011;13887;57.196;-2.100;2022-12-24T16:34:01;12.17;;;11.77;;
22068;SDS011;13887;57.196;-2.100;2022-12-24T16:36:29;12.53;;;12.13;;
22068;SDS011;13887;57.196;-2.100;2022-12-24T16:38:57;12.47;;;12.07;;
22068;SDS011;13887;57.196;-2.100;2022-12-24T16:41:43;12.80;;;12.40;;
22068;SDS011;13887;57.196;-2.100;2022-12-24T16:44:28;12.77;;;12.37;;
22068;SDS011;13887;57.196;-2.100;2022-12-24T16:46:55;12.67;;;12.27;;
22068;SDS011;13887;57.196;-2.100;2022-12-24T16:49:25;12.57;;;12.17;;
22068;SDS011;13887;57.196;-2.100;2022-12-24T16:51:52;13.07;;;12.67;;
22068;SDS011;13887;57.196;-2.100;2022-12-24T16:54:19;12.83;;;12.43;;
22068;SDS011;13887;57.196;-2.100;2022-12-24T16:56:46;13.30;;;12.90;;
22068;SDS011;13887;57.196;-2.100;2022-12-24T17:01:44;12.90;;;12.50;;
22068;SDS011;13887;57.196;-2.100;2022-12-24T17:04:12;13.10;;;12.70;;
22068;SDS011;13887;57.196;-2.100;2022-12-24T17:06:39;13.17;;;12.77;;
22068;SDS011;13887;57.196;-2.100;2022-12-24T17:09:07;12.70;;;12.30;;
22068;SDS011;13887;57.196;-2.100;2022-12-24T17:11:35;12.93;;;12.53;;
22068;SDS011;13887;57.196;-2.100;2022-12-24T17:14:03;13.00;;;12.60;;
22068;SDS011;13887;57.196;-2.100;2022-12-24T17:16:34;12.80;;;12.40;;
22068;SDS011;13887;57.196;-2.100;2022-12-24T17:19:03;13.23;;;12.83;;
22068;SDS011;13887;57.196;-2.100;2022-12-24T17:21:30;13.60;;;13.10;;
22068;SDS011;13887;57.196;-2.100;2022-12-24T17:23:57;12.20;;;11.80;;
22068;SDS011;13887;57.196;-2.100;2022-12-24T17:26:24;13.17;;;12.77;;